sensor_id;sensor_type;location;lat;lon;timestamp;P1;durP1;ratioP1;P2;durP2;ratioP2
69596;SDS011;70000;51.176;-115.568;2023-05-10T00:00:04;7.00;;;4.00;;
69596;SDS011;70000;51.176;-115.568;2023-05-10T00:02:34;6.90;;;3.90;;
69596;SDS011;70000;51.176;-115.568;2023-05-10T00:05:03;9.50;;;4.50;;
69596;SDS011;70000;51.176;-115.568;2023-05-10T00:07:33;6.70;;;3.70;;
69596;SDS011;70000;51.176;-115.568;2023-05-10T00:10:02;7.00;;;3.70;;
69596;SDS011;70000;51.176;-115.568;2023-05-10T00:12:31;7.10;;;3.90;;
69596;SDS011;70000;51.176;-115.568;2023-05-10T00:15:02;6.60;;;3.70;;
69596;SDS011;70000;51.176;-115.568;2023-05-10T00:17:31;8.40;;;3.60;;
69596;SDS011;70000;51.176;-115.568;2023-05-10T00:20:00;7.50;;;3.60;;
69596;SDS011;70000;51.176;-115.568;2023-05-10T00:22:36;7.50;;;3.50;;
69596;SDS011;70000;51.176;-115.568;2023-05-10T00:25:06;7.10;;;3.70;;
69596;SDS011;70000;51.176;-115.568;2023-05-10T00:27:35;7.10;;;3.10;;
69596;SDS011;70000;51.176;-115.568;2023-05-10T00:30:05;6.30;;;3.40;;
69596;SDS011;70000;51.176;-115.568;2023-05-10T00:32:35;8.50;;;4.50;;
69596;SDS011;70000;51.176;-115.568;2023-05-10T00:35:04;7.90;;;3.80;;
69596;SDS011;70000;51.176;-115.568;2023-05-10T00:37:33;6.90;;;3.20;;
69596;SDS011;70000;51.176;-115.568;2023-05-10T00:40:02;9.70;;;4.70;;
69596;SDS011;70000;51.176;-115.568;2023-05-10T00:42:33;8.20;;;4.00;;
69596;SDS011;70000;51.176;-115.568;2023-05-10T00:45:02;7.10;;;3.80;;
69596;SDS011;70000;51.176;-115.568;2023-05-10T00:47:31;6.60;;;3.50;;
69596;SDS011;70000;51.176;-115.568;2023-05-10T00:50:02;15.30;;;3.70;;
69596;SDS011;70000;51.176;-115.568;2023-05-10T00:52:31;6.70;;;3.20;;
69596;SDS011;70000;51.176;-115.568;2023-05-10T00:55:00;7.20;;;3.80;;
69596;SDS011;70000;51.176;-115.568;2023-05-10T00:57:31;6.90;;;3.40;;
69596;SDS011;70000;51.176;-115.568;2023-05-10T01:00:01;7.20;;;3.80;;
69596;SDS011;70000;51.176;-115.568;2023-05-10T01:02:31;7.10;;;3.40;;
69596;SDS011;70000;51.176;-115.568;2023-05-10T01:05:03;7.60;;;3.30;;
69596;SDS011;70000;51.176;-115.568;2023-05-10T01:07:33;6.50;;;3.20;;
69596;SDS011;70000;51.176;-115.568;2023-05-10T01:10:01;7.00;;;3.70;;
69596;SDS011;70000;51.176;-115.568;2023-05-10T01:12:31;6.40;;;3.10;;
69596;SDS011;70000;51.176;-115.568;2023-05-10T01:15:02;6.30;;;3.40;;
69596;SDS011;70000;51.176;-115.568;2023-05-10T01:17:34;6.40;;;3.10;;
69596;SDS011;70000;51.176;-115.568;2023-05-10T01:20:07;7.80;;;3.20;;
69596;SDS011;70000;51.176;-115.568;2023-05-10T01:26:21;6.00;;;2.80;;
69596;SDS011;70000;51.176;-115.568;2023-05-10T01:29:24;6.00;;;2.40;;
69596;SDS011;70000;51.176;-115.568;2023-05-10T01:33:11;8.40;;;3.70;;
69596;SDS011;70000;51.176;-115.568;2023-05-10T01:38:47;6.40;;;3.10;;
69596;SDS011;70000;51.176;-115.568;2023-05-10T01:41:24;7.40;;;4.40;;
69596;SDS011;70000;51.176;-115.568;2023-05-10T01:47:17;7.00;;;4.00;;
69596;SDS011;70000;51.176;-115.568;2023-05-10T01:49:55;6.90;;;3.40;;
69596;SDS011;70000;51.176;-115.568;2023-05-10T01:52:40;8.20;;;3.70;;
69596;SDS011;70000;51.176;-115.568;2023-05-10T01:55:15;6.80;;;2.80;;
69596;SDS011;70000;51.176;-115.568;2023-05-10T01:58:05;6.80;;;3.20;;
69596;SDS011;70000;51.176;-115.568;2023-05-10T02:00:44;6.40;;;2.80;;
69596;SDS011;70000;51.176;-115.568;2023-05-10T02:03:16;6.70;;;3.20;;
69596;SDS011;70000;51.176;-115.568;2023-05-10T02:05:49;6.90;;;3.20;;
69596;SDS011;70000;51.176;-115.568;2023-05-10T02:08:22;7.60;;;3.40;;
69596;SDS011;70000;51.176;-115.568;2023-05-10T02:10:54;8.10;;;3.90;;
69596;SDS011;70000;51.176;-115.568;2023-05-10T02:13:25;6.80;;;3.40;;
69596;SDS011;70000;51.176;-115.568;2023-05-10T02:15:59;7.70;;;3.60;;
69596;SDS011;70000;51.176;-115.568;2023-05-10T02:18:30;6.80;;;3.40;;
69596;SDS011;70000;51.176;-115.568;2023-05-10T02:21:02;7.10;;;3.70;;
69596;SDS011;70000;51.176;-115.568;2023-05-10T02:23:32;8.20;;;4.00;;
69596;SDS011;70000;51.176;-115.568;2023-05-10T02:26:04;7.50;;;3.50;;
69596;SDS011;70000;51.176;-115.568;2023-05-10T02:28:38;7.30;;;3.10;;
69596;SDS011;70000;51.176;-115.568;2023-05-10T02:31:10;6.20;;;2.50;;
69596;SDS011;70000;51.176;-115.568;2023-05-10T02:33:40;6.20;;;2.80;;
69596;SDS011;70000;51.176;-115.568;2023-05-10T02:36:12;7.10;;;2.70;;
69596;SDS011;70000;51.176;-115.568;2023-05-10T02:38:44;6.40;;;2.70;;
69596;SDS011;70000;51.176;-115.568;2023-05-10T02:41:14;6.40;;;3.10;;
69596;SDS011;70000;51.176;-115.568;2023-05-10T02:43:44;6.00;;;2.80;;
69596;SDS011;70000;51.176;-115.568;2023-05-10T02:46:14;7.30;;;3.10;;
69596;SDS011;70000;51.176;-115.568;2023-05-10T02:48:43;6.50;;;3.60;;
69596;SDS011;70000;51.176;-115.568;2023-05-10T02:51:16;7.10;;;3.50;;
69596;SDS011;70000;51.176;-115.568;2023-05-10T02:53:47;6.50;;;3.30;;
69596;SDS011;70000;51.176;-115.568;2023-05-10T02:56:30;6.80;;;3.10;;
69596;SDS011;70000;51.176;-115.568;2023-05-10T02:59:03;5.90;;;2.30;;
69596;SDS011;70000;51.176;-115.568;2023-05-10T03:01:33;6.60;;;3.10;;
69596;SDS011;70000;51.176;-115.568;2023-05-10T03:04:10;6.80;;;3.00;;
69596;SDS011;70000;51.176;-115.568;2023-05-10T03:06:40;7.30;;;3.50;;
69596;SDS011;70000;51.176;-115.568;2023-05-10T03:09:12;6.50;;;3.10;;
69596;SDS011;70000;51.176;-115.568;2023-05-10T03:15:03;5.90;;;2.60;;
69596;SDS011;70000;51.176;-115.568;2023-05-10T03:18:06;6.50;;;3.10;;
69596;SDS011;70000;51.176;-115.568;2023-05-10T03:20:42;6.80;;;2.80;;
69596;SDS011;70000;51.176;-115.568;2023-05-10T03:23:37;7.20;;;2.50;;
69596;SDS011;70000;51.176;-115.568;2023-05-10T03:26:18;7.50;;;3.50;;
69596;SDS011;70000;51.176;-115.568;2023-05-10T03:28:53;6.50;;;3.00;;
69596;SDS011;70000;51.176;-115.568;2023-05-10T03:31:24;6.50;;;2.90;;
69596;SDS011;70000;51.176;-115.568;2023-05-10T03:33:53;6.00;;;3.20;;
69596;SDS011;70000;51.176;-115.568;2023-05-10T03:36:23;6.90;;;3.20;;
69596;SDS011;70000;51.176;-115.568;2023-05-10T03:38:55;6.40;;;3.10;;
69596;SDS011;70000;51.176;-115.568;2023-05-10T03:41:24;7.10;;;3.30;;
69596;SDS011;70000;51.176;-115.568;2023-05-10T03:43:54;6.40;;;3.00;;
69596;SDS011;70000;51.176;-115.568;2023-05-10T03:46:29;6.30;;;2.90;;
69596;SDS011;70000;51.176;-115.568;2023-05-10T03:49:07;6.50;;;2.40;;
69596;SDS011;70000;51.176;-115.568;2023-05-10T03:52:00;6.20;;;2.30;;
69596;SDS011;70000;51.176;-115.568;2023-05-10T03:54:53;5.80;;;2.50;;
69596;SDS011;70000;51.176;-115.568;2023-05-10T03:57:42;6.50;;;2.90;;
69596;SDS011;70000;51.176;-115.568;2023-05-10T04:00:37;6.00;;;2.50;;
69596;SDS011;70000;51.176;-115.568;2023-05-10T04:03:21;6.40;;;2.80;;
69596;SDS011;70000;51.176;-115.568;2023-05-10T04:06:02;6.40;;;2.80;;
69596;SDS011;70000;51.176;-115.568;2023-05-10T04:08:38;6.10;;;2.60;;
69596;SDS011;70000;51.176;-115.568;2023-05-10T04:11:10;6.20;;;2.30;;
69596;SDS011;70000;51.176;-115.568;2023-05-10T04:13:46;5.90;;;2.60;;
69596;SDS011;70000;51.176;-115.568;2023-05-10T04:16:25;5.90;;;2.50;;
69596;SDS011;70000;51.176;-115.568;2023-05-10T04:18:58;6.80;;;3.00;;
69596;SDS011;70000;51.176;-115.568;2023-05-10T04:21:28;5.60;;;2.30;;
69596;SDS011;70000;51.176;-115.568;2023-05-10T04:24:00;5.90;;;2.40;;
69596;SDS011;70000;51.176;-115.568;2023-05-10T04:26:39;5.90;;;2.70;;
69596;SDS011;70000;51.176;-115.568;2023-05-10T04:29:17;6.30;;;2.90;;
69596;SDS011;70000;51.176;-115.568;2023-05-10T04:31:56;6.00;;;2.50;;
69596;SDS011;70000;51.176;-115.568;2023-05-10T04:34:40;6.70;;;2.60;;
69596;SDS011;70000;51.176;-115.568;2023-05-10T04:37:11;6.30;;;2.80;;
69596;SDS011;70000;51.176;-115.568;2023-05-10T04:42:53;5.70;;;2.40;;
69596;SDS011;70000;51.176;-115.568;2023-05-10T04:45:37;5.50;;;2.60;;
69596;SDS011;70000;51.176;-115.568;2023-05-10T04:48:15;5.80;;;2.70;;
69596;SDS011;70000;51.176;-115.568;2023-05-10T04:51:00;5.80;;;2.90;;
69596;SDS011;70000;51.176;-115.568;2023-05-10T04:53:38;5.90;;;2.50;;
69596;SDS011;70000;51.176;-115.568;2023-05-10T05:07:14;5.60;;;2.10;;
69596;SDS011;70000;51.176;-115.568;2023-05-10T05:09:46;5.10;;;1.90;;
69596;SDS011;70000;51.176;-115.568;2023-05-10T05:12:15;5.40;;;2.20;;
69596;SDS011;70000;51.176;-115.568;2023-05-10T05:14:44;5.10;;;2.10;;
69596;SDS011;70000;51.176;-115.568;2023-05-10T05:17:13;4.80;;;1.90;;
69596;SDS011;70000;51.176;-115.568;2023-05-10T05:19:43;5.20;;;2.30;;
69596;SDS011;70000;51.176;-115.568;2023-05-10T05:22:20;5.20;;;2.20;;
69596;SDS011;70000;51.176;-115.568;2023-05-10T05:24:56;5.00;;;2.00;;
69596;SDS011;70000;51.176;-115.568;2023-05-10T05:27:31;5.00;;;1.70;;
69596;SDS011;70000;51.176;-115.568;2023-05-10T05:30:03;4.50;;;1.60;;
69596;SDS011;70000;51.176;-115.568;2023-05-10T05:32:33;4.90;;;1.90;;
69596;SDS011;70000;51.176;-115.568;2023-05-10T05:35:03;4.90;;;1.80;;
69596;SDS011;70000;51.176;-115.568;2023-05-10T05:37:33;5.10;;;2.30;;
69596;SDS011;70000;51.176;-115.568;2023-05-10T05:40:03;4.70;;;1.60;;
69596;SDS011;70000;51.176;-115.568;2023-05-10T05:42:33;5.00;;;1.90;;
69596;SDS011;70000;51.176;-115.568;2023-05-10T05:45:03;5.40;;;1.90;;
69596;SDS011;70000;51.176;-115.568;2023-05-10T05:47:32;5.30;;;2.20;;
69596;SDS011;70000;51.176;-115.568;2023-05-10T05:50:01;4.90;;;2.00;;
69596;SDS011;70000;51.176;-115.568;2023-05-10T05:52:31;5.60;;;1.90;;
69596;SDS011;70000;51.176;-115.568;2023-05-10T05:55:00;4.90;;;1.90;;
69596;SDS011;70000;51.176;-115.568;2023-05-10T05:57:31;5.00;;;2.00;;
69596;SDS011;70000;51.176;-115.568;2023-05-10T06:00:00;5.20;;;2.10;;
69596;SDS011;70000;51.176;-115.568;2023-05-10T06:02:34;4.80;;;2.10;;
69596;SDS011;70000;51.176;-115.568;2023-05-10T06:05:05;5.10;;;2.20;;
69596;SDS011;70000;51.176;-115.568;2023-05-10T06:07:35;5.00;;;1.80;;
69596;SDS011;70000;51.176;-115.568;2023-05-10T06:10:08;4.80;;;2.00;;
69596;SDS011;70000;51.176;-115.568;2023-05-10T06:12:38;5.20;;;2.10;;
69596;SDS011;70000;51.176;-115.568;2023-05-10T06:15:08;5.40;;;2.20;;
69596;SDS011;70000;51.176;-115.568;2023-05-10T06:17:42;4.40;;;1.80;;
69596;SDS011;70000;51.176;-115.568;2023-05-10T06:20:21;4.80;;;1.70;;
69596;SDS011;70000;51.176;-115.568;2023-05-10T06:22:51;4.80;;;1.70;;
69596;SDS011;70000;51.176;-115.568;2023-05-10T06:25:21;4.40;;;1.70;;
69596;SDS011;70000;51.176;-115.568;2023-05-10T06:27:50;4.80;;;1.90;;
69596;SDS011;70000;51.176;-115.568;2023-05-10T06:30:25;5.30;;;1.90;;
69596;SDS011;70000;51.176;-115.568;2023-05-10T06:32:56;4.90;;;1.50;;
69596;SDS011;70000;51.176;-115.568;2023-05-10T06:35:26;5.00;;;2.30;;
69596;SDS011;70000;51.176;-115.568;2023-05-10T06:37:59;4.70;;;1.90;;
69596;SDS011;70000;51.176;-115.568;2023-05-10T06:40:28;4.80;;;1.90;;
69596;SDS011;70000;51.176;-115.568;2023-05-10T06:42:58;4.40;;;1.60;;
69596;SDS011;70000;51.176;-115.568;2023-05-10T06:45:28;4.70;;;1.90;;
69596;SDS011;70000;51.176;-115.568;2023-05-10T06:47:57;4.80;;;1.80;;
69596;SDS011;70000;51.176;-115.568;2023-05-10T06:50:30;4.70;;;1.80;;
69596;SDS011;70000;51.176;-115.568;2023-05-10T06:53:00;4.50;;;1.70;;
69596;SDS011;70000;51.176;-115.568;2023-05-10T06:55:32;4.80;;;1.90;;
69596;SDS011;70000;51.176;-115.568;2023-05-10T06:58:02;4.70;;;1.80;;
69596;SDS011;70000;51.176;-115.568;2023-05-10T07:00:54;4.70;;;2.00;;
69596;SDS011;70000;51.176;-115.568;2023-05-10T07:03:29;4.80;;;2.10;;
69596;SDS011;70000;51.176;-115.568;2023-05-10T07:06:03;4.90;;;1.80;;
69596;SDS011;70000;51.176;-115.568;2023-05-10T07:08:45;4.60;;;1.70;;
69596;SDS011;70000;51.176;-115.568;2023-05-10T07:11:14;5.00;;;2.00;;
69596;SDS011;70000;51.176;-115.568;2023-05-10T07:13:44;4.50;;;1.80;;
69596;SDS011;70000;51.176;-115.568;2023-05-10T07:16:14;5.10;;;2.00;;
69596;SDS011;70000;51.176;-115.568;2023-05-10T07:18:47;4.40;;;1.60;;
69596;SDS011;70000;51.176;-115.568;2023-05-10T07:21:16;4.40;;;1.70;;
69596;SDS011;70000;51.176;-115.568;2023-05-10T07:23:46;5.30;;;1.60;;
69596;SDS011;70000;51.176;-115.568;2023-05-10T07:26:15;5.30;;;2.00;;
69596;SDS011;70000;51.176;-115.568;2023-05-10T07:28:56;4.90;;;2.00;;
69596;SDS011;70000;51.176;-115.568;2023-05-10T07:31:26;4.70;;;1.70;;
69596;SDS011;70000;51.176;-115.568;2023-05-10T07:33:58;4.50;;;1.60;;
69596;SDS011;70000;51.176;-115.568;2023-05-10T07:36:28;4.10;;;1.60;;
69596;SDS011;70000;51.176;-115.568;2023-05-10T07:39:07;4.50;;;1.70;;
69596;SDS011;70000;51.176;-115.568;2023-05-10T07:41:40;4.50;;;1.90;;
69596;SDS011;70000;51.176;-115.568;2023-05-10T07:44:10;4.50;;;1.90;;
69596;SDS011;70000;51.176;-115.568;2023-05-10T07:46:49;4.30;;;1.60;;
69596;SDS011;70000;51.176;-115.568;2023-05-10T07:49:21;4.50;;;1.80;;
69596;SDS011;70000;51.176;-115.568;2023-05-10T07:51:52;4.70;;;1.80;;
69596;SDS011;70000;51.176;-115.568;2023-05-10T07:54:21;4.60;;;1.80;;
69596;SDS011;70000;51.176;-115.568;2023-05-10T07:56:51;5.40;;;2.20;;
69596;SDS011;70000;51.176;-115.568;2023-05-10T07:59:23;4.70;;;1.70;;
69596;SDS011;70000;51.176;-115.568;2023-05-10T08:01:52;4.90;;;1.80;;
69596;SDS011;70000;51.176;-115.568;2023-05-10T08:04:21;5.80;;;1.90;;
69596;SDS011;70000;51.176;-115.568;2023-05-10T08:06:50;4.20;;;1.60;;
69596;SDS011;70000;51.176;-115.568;2023-05-10T08:09:19;3.90;;;1.20;;
69596;SDS011;70000;51.176;-115.568;2023-05-10T08:11:51;4.50;;;1.70;;
69596;SDS011;70000;51.176;-115.568;2023-05-10T08:14:20;4.30;;;1.50;;
69596;SDS011;70000;51.176;-115.568;2023-05-10T08:16:49;4.50;;;1.80;;
69596;SDS011;70000;51.176;-115.568;2023-05-10T08:19:18;4.60;;;2.00;;
69596;SDS011;70000;51.176;-115.568;2023-05-10T08:21:49;4.70;;;2.00;;
69596;SDS011;70000;51.176;-115.568;2023-05-10T08:24:18;4.60;;;1.70;;
69596;SDS011;70000;51.176;-115.568;2023-05-10T08:26:47;4.40;;;1.80;;
69596;SDS011;70000;51.176;-115.568;2023-05-10T08:29:16;4.20;;;1.80;;
69596;SDS011;70000;51.176;-115.568;2023-05-10T08:31:46;5.30;;;1.80;;
69596;SDS011;70000;51.176;-115.568;2023-05-10T08:34:15;4.90;;;1.80;;
69596;SDS011;70000;51.176;-115.568;2023-05-10T08:36:44;4.10;;;1.50;;
69596;SDS011;70000;51.176;-115.568;2023-05-10T08:39:13;4.60;;;1.70;;
69596;SDS011;70000;51.176;-115.568;2023-05-10T08:41:58;4.70;;;2.00;;
69596;SDS011;70000;51.176;-115.568;2023-05-10T08:44:35;4.80;;;1.90;;
69596;SDS011;70000;51.176;-115.568;2023-05-10T08:47:07;4.70;;;1.90;;
69596;SDS011;70000;51.176;-115.568;2023-05-10T08:49:38;4.60;;;1.60;;
69596;SDS011;70000;51.176;-115.568;2023-05-10T08:52:11;6.00;;;2.50;;
69596;SDS011;70000;51.176;-115.568;2023-05-10T08:54:46;5.40;;;2.20;;
69596;SDS011;70000;51.176;-115.568;2023-05-10T08:57:15;4.70;;;1.80;;
69596;SDS011;70000;51.176;-115.568;2023-05-10T08:59:45;4.50;;;1.80;;
69596;SDS011;70000;51.176;-115.568;2023-05-10T09:02:15;4.50;;;1.80;;
69596;SDS011;70000;51.176;-115.568;2023-05-10T09:04:46;4.40;;;1.80;;
69596;SDS011;70000;51.176;-115.568;2023-05-10T09:07:17;4.70;;;1.80;;
69596;SDS011;70000;51.176;-115.568;2023-05-10T09:09:49;4.60;;;1.90;;
69596;SDS011;70000;51.176;-115.568;2023-05-10T09:12:20;4.70;;;1.90;;
69596;SDS011;70000;51.176;-115.568;2023-05-10T09:14:50;5.10;;;1.70;;
69596;SDS011;70000;51.176;-115.568;2023-05-10T09:17:24;4.30;;;1.50;;
69596;SDS011;70000;51.176;-115.568;2023-05-10T09:20:05;4.50;;;1.80;;
69596;SDS011;70000;51.176;-115.568;2023-05-10T09:22:35;4.80;;;1.80;;
69596;SDS011;70000;51.176;-115.568;2023-05-10T09:25:16;4.50;;;1.70;;
69596;SDS011;70000;51.176;-115.568;2023-05-10T09:27:46;4.60;;;1.70;;
69596;SDS011;70000;51.176;-115.568;2023-05-10T09:32:55;5.70;;;2.10;;
69596;SDS011;70000;51.176;-115.568;2023-05-10T09:35:27;5.00;;;1.90;;
69596;SDS011;70000;51.176;-115.568;2023-05-10T09:38:00;4.50;;;1.80;;
69596;SDS011;70000;51.176;-115.568;2023-05-10T09:40:35;4.00;;;1.50;;
69596;SDS011;70000;51.176;-115.568;2023-05-10T09:43:07;4.80;;;1.80;;
69596;SDS011;70000;51.176;-115.568;2023-05-10T09:45:41;4.80;;;1.90;;
69596;SDS011;70000;51.176;-115.568;2023-05-10T09:48:10;4.80;;;2.10;;
69596;SDS011;70000;51.176;-115.568;2023-05-10T09:50:57;4.50;;;1.70;;
69596;SDS011;70000;51.176;-115.568;2023-05-10T09:53:26;4.60;;;1.60;;
69596;SDS011;70000;51.176;-115.568;2023-05-10T09:55:55;4.90;;;1.90;;
69596;SDS011;70000;51.176;-115.568;2023-05-10T09:58:27;4.90;;;1.70;;
69596;SDS011;70000;51.176;-115.568;2023-05-10T10:00:56;4.30;;;1.70;;
69596;SDS011;70000;51.176;-115.568;2023-05-10T10:03:26;4.20;;;1.50;;
69596;SDS011;70000;51.176;-115.568;2023-05-10T10:05:56;4.10;;;1.50;;
69596;SDS011;70000;51.176;-115.568;2023-05-10T10:08:26;4.80;;;1.80;;
69596;SDS011;70000;51.176;-115.568;2023-05-10T10:10:59;5.40;;;1.90;;
69596;SDS011;70000;51.176;-115.568;2023-05-10T10:13:28;4.50;;;1.90;;
69596;SDS011;70000;51.176;-115.568;2023-05-10T10:16:00;4.90;;;1.80;;
69596;SDS011;70000;51.176;-115.568;2023-05-10T10:18:30;3.90;;;1.40;;
69596;SDS011;70000;51.176;-115.568;2023-05-10T10:21:00;4.80;;;1.60;;
69596;SDS011;70000;51.176;-115.568;2023-05-10T10:23:34;4.70;;;1.90;;
69596;SDS011;70000;51.176;-115.568;2023-05-10T10:26:04;4.60;;;1.50;;
69596;SDS011;70000;51.176;-115.568;2023-05-10T10:28:51;4.60;;;1.80;;
69596;SDS011;70000;51.176;-115.568;2023-05-10T10:32:54;4.50;;;1.80;;
69596;SDS011;70000;51.176;-115.568;2023-05-10T10:34:56;4.70;;;1.90;;
69596;SDS011;70000;51.176;-115.568;2023-05-10T10:37:43;4.60;;;1.70;;
69596;SDS011;70000;51.176;-115.568;2023-05-10T10:40:42;4.00;;;1.50;;
69596;SDS011;70000;51.176;-115.568;2023-05-10T10:43:25;4.60;;;1.50;;
69596;SDS011;70000;51.176;-115.568;2023-05-10T10:46:16;4.90;;;1.80;;
69596;SDS011;70000;51.176;-115.568;2023-05-10T10:49:08;4.50;;;1.60;;
69596;SDS011;70000;51.176;-115.568;2023-05-10T10:51:38;4.70;;;2.00;;
69596;SDS011;70000;51.176;-115.568;2023-05-10T10:54:09;4.40;;;1.70;;
69596;SDS011;70000;51.176;-115.568;2023-05-10T10:56:39;4.80;;;1.90;;
69596;SDS011;70000;51.176;-115.568;2023-05-10T10:59:10;4.50;;;1.80;;
69596;SDS011;70000;51.176;-115.568;2023-05-10T11:01:41;4.20;;;1.60;;
69596;SDS011;70000;51.176;-115.568;2023-05-10T11:06:41;5.20;;;2.10;;
69596;SDS011;70000;51.176;-115.568;2023-05-10T11:09:14;4.40;;;1.60;;
69596;SDS011;70000;51.176;-115.568;2023-05-10T11:11:54;5.10;;;2.00;;
69596;SDS011;70000;51.176;-115.568;2023-05-10T11:14:24;4.30;;;1.60;;
69596;SDS011;70000;51.176;-115.568;2023-05-10T11:17:01;4.50;;;1.70;;
69596;SDS011;70000;51.176;-115.568;2023-05-10T11:19:30;4.70;;;1.90;;
69596;SDS011;70000;51.176;-115.568;2023-05-10T11:24:33;5.00;;;2.10;;
69596;SDS011;70000;51.176;-115.568;2023-05-10T11:27:03;4.60;;;2.00;;
69596;SDS011;70000;51.176;-115.568;2023-05-10T11:29:33;4.60;;;1.90;;
69596;SDS011;70000;51.176;-115.568;2023-05-10T11:32:05;5.00;;;2.00;;
69596;SDS011;70000;51.176;-115.568;2023-05-10T11:34:36;4.80;;;1.80;;
69596;SDS011;70000;51.176;-115.568;2023-05-10T11:37:05;4.60;;;1.60;;
69596;SDS011;70000;51.176;-115.568;2023-05-10T11:39:34;4.70;;;1.60;;
69596;SDS011;70000;51.176;-115.568;2023-05-10T11:42:04;4.60;;;1.90;;
69596;SDS011;70000;51.176;-115.568;2023-05-10T11:44:33;4.80;;;2.00;;
69596;SDS011;70000;51.176;-115.568;2023-05-10T11:47:02;4.70;;;1.90;;
69596;SDS011;70000;51.176;-115.568;2023-05-10T11:49:32;4.70;;;1.60;;
69596;SDS011;70000;51.176;-115.568;2023-05-10T11:52:07;4.40;;;1.70;;
69596;SDS011;70000;51.176;-115.568;2023-05-10T11:54:37;4.20;;;1.60;;
69596;SDS011;70000;51.176;-115.568;2023-05-10T11:57:06;5.00;;;2.20;;
69596;SDS011;70000;51.176;-115.568;2023-05-10T11:59:35;4.60;;;1.60;;
69596;SDS011;70000;51.176;-115.568;2023-05-10T12:02:07;4.60;;;1.80;;
69596;SDS011;70000;51.176;-115.568;2023-05-10T12:04:36;4.50;;;1.70;;
69596;SDS011;70000;51.176;-115.568;2023-05-10T12:07:06;4.80;;;1.90;;
69596;SDS011;70000;51.176;-115.568;2023-05-10T12:09:35;5.10;;;2.20;;
69596;SDS011;70000;51.176;-115.568;2023-05-10T12:12:24;4.90;;;1.90;;
69596;SDS011;70000;51.176;-115.568;2023-05-10T12:14:53;5.20;;;1.90;;
69596;SDS011;70000;51.176;-115.568;2023-05-10T12:17:22;4.40;;;1.70;;
69596;SDS011;70000;51.176;-115.568;2023-05-10T12:20:12;4.80;;;1.80;;
69596;SDS011;70000;51.176;-115.568;2023-05-10T12:22:53;4.30;;;1.50;;
69596;SDS011;70000;51.176;-115.568;2023-05-10T12:25:30;4.20;;;1.60;;
69596;SDS011;70000;51.176;-115.568;2023-05-10T12:28:03;4.90;;;2.10;;
69596;SDS011;70000;51.176;-115.568;2023-05-10T12:30:35;5.00;;;1.50;;
69596;SDS011;70000;51.176;-115.568;2023-05-10T12:33:10;4.70;;;1.90;;
69596;SDS011;70000;51.176;-115.568;2023-05-10T12:35:54;4.60;;;1.90;;
69596;SDS011;70000;51.176;-115.568;2023-05-10T12:38:28;4.40;;;1.70;;
69596;SDS011;70000;51.176;-115.568;2023-05-10T12:41:06;4.90;;;1.90;;
69596;SDS011;70000;51.176;-115.568;2023-05-10T12:43:37;4.50;;;1.70;;
69596;SDS011;70000;51.176;-115.568;2023-05-10T12:46:09;4.70;;;2.00;;
69596;SDS011;70000;51.176;-115.568;2023-05-10T12:48:39;4.60;;;1.80;;
69596;SDS011;70000;51.176;-115.568;2023-05-10T12:51:09;5.10;;;1.60;;
69596;SDS011;70000;51.176;-115.568;2023-05-10T12:53:41;4.60;;;1.90;;
69596;SDS011;70000;51.176;-115.568;2023-05-10T12:56:13;4.40;;;1.50;;
69596;SDS011;70000;51.176;-115.568;2023-05-10T12:58:46;4.80;;;2.00;;
69596;SDS011;70000;51.176;-115.568;2023-05-10T13:01:15;4.60;;;1.80;;
69596;SDS011;70000;51.176;-115.568;2023-05-10T13:03:45;4.40;;;1.70;;
69596;SDS011;70000;51.176;-115.568;2023-05-10T13:06:14;4.50;;;1.70;;
69596;SDS011;70000;51.176;-115.568;2023-05-10T13:08:43;4.80;;;1.90;;
69596;SDS011;70000;51.176;-115.568;2023-05-10T13:11:12;4.60;;;1.60;;
69596;SDS011;70000;51.176;-115.568;2023-05-10T13:13:45;4.60;;;1.80;;
69596;SDS011;70000;51.176;-115.568;2023-05-10T13:16:15;5.10;;;1.80;;
69596;SDS011;70000;51.176;-115.568;2023-05-10T13:18:44;4.80;;;1.80;;
69596;SDS011;70000;51.176;-115.568;2023-05-10T13:21:13;4.60;;;1.60;;
69596;SDS011;70000;51.176;-115.568;2023-05-10T13:23:42;4.60;;;1.90;;
69596;SDS011;70000;51.176;-115.568;2023-05-10T13:26:11;4.70;;;1.90;;
69596;SDS011;70000;51.176;-115.568;2023-05-10T13:28:41;4.80;;;2.10;;
69596;SDS011;70000;51.176;-115.568;2023-05-10T13:31:10;4.20;;;1.50;;
69596;SDS011;70000;51.176;-115.568;2023-05-10T13:33:39;4.50;;;1.80;;
69596;SDS011;70000;51.176;-115.568;2023-05-10T13:36:08;5.30;;;2.00;;
69596;SDS011;70000;51.176;-115.568;2023-05-10T13:38:37;5.10;;;2.10;;
69596;SDS011;70000;51.176;-115.568;2023-05-10T13:41:06;4.20;;;1.50;;
69596;SDS011;70000;51.176;-115.568;2023-05-10T13:43:38;4.80;;;1.80;;
69596;SDS011;70000;51.176;-115.568;2023-05-10T13:46:07;4.60;;;1.70;;
69596;SDS011;70000;51.176;-115.568;2023-05-10T13:48:36;5.10;;;2.10;;
69596;SDS011;70000;51.176;-115.568;2023-05-10T13:51:05;5.00;;;2.00;;
69596;SDS011;70000;51.176;-115.568;2023-05-10T13:53:34;4.90;;;1.90;;
69596;SDS011;70000;51.176;-115.568;2023-05-10T13:56:04;4.70;;;1.70;;
69596;SDS011;70000;51.176;-115.568;2023-05-10T13:58:34;5.00;;;1.70;;
69596;SDS011;70000;51.176;-115.568;2023-05-10T14:01:04;4.70;;;1.90;;
69596;SDS011;70000;51.176;-115.568;2023-05-10T14:03:34;5.10;;;1.90;;
69596;SDS011;70000;51.176;-115.568;2023-05-10T14:06:03;5.10;;;2.00;;
69596;SDS011;70000;51.176;-115.568;2023-05-10T14:08:33;5.00;;;1.90;;
69596;SDS011;70000;51.176;-115.568;2023-05-10T14:11:04;4.70;;;1.50;;
69596;SDS011;70000;51.176;-115.568;2023-05-10T14:13:36;5.10;;;2.10;;
69596;SDS011;70000;51.176;-115.568;2023-05-10T14:16:05;5.10;;;2.10;;
69596;SDS011;70000;51.176;-115.568;2023-05-10T14:18:35;5.00;;;2.00;;
69596;SDS011;70000;51.176;-115.568;2023-05-10T14:21:04;4.70;;;1.80;;
69596;SDS011;70000;51.176;-115.568;2023-05-10T14:23:35;4.90;;;2.10;;
69596;SDS011;70000;51.176;-115.568;2023-05-10T14:26:04;5.00;;;2.10;;
69596;SDS011;70000;51.176;-115.568;2023-05-10T14:28:34;5.50;;;2.20;;
69596;SDS011;70000;51.176;-115.568;2023-05-10T14:31:05;4.80;;;1.70;;
69596;SDS011;70000;51.176;-115.568;2023-05-10T14:33:34;5.10;;;2.30;;
69596;SDS011;70000;51.176;-115.568;2023-05-10T14:36:03;4.60;;;1.90;;
69596;SDS011;70000;51.176;-115.568;2023-05-10T14:38:32;4.60;;;1.80;;
69596;SDS011;70000;51.176;-115.568;2023-05-10T14:41:01;5.00;;;2.40;;
69596;SDS011;70000;51.176;-115.568;2023-05-10T14:43:31;5.00;;;2.00;;
69596;SDS011;70000;51.176;-115.568;2023-05-10T14:46:00;5.00;;;2.00;;
69596;SDS011;70000;51.176;-115.568;2023-05-10T14:48:29;5.90;;;2.40;;
69596;SDS011;70000;51.176;-115.568;2023-05-10T14:50:58;5.30;;;2.30;;
69596;SDS011;70000;51.176;-115.568;2023-05-10T14:53:30;4.80;;;2.00;;
69596;SDS011;70000;51.176;-115.568;2023-05-10T14:56:00;4.60;;;1.70;;
69596;SDS011;70000;51.176;-115.568;2023-05-10T14:58:30;4.30;;;1.80;;
69596;SDS011;70000;51.176;-115.568;2023-05-10T15:01:00;4.90;;;2.10;;
69596;SDS011;70000;51.176;-115.568;2023-05-10T15:03:29;5.00;;;2.10;;
69596;SDS011;70000;51.176;-115.568;2023-05-10T15:05:59;5.10;;;2.40;;
69596;SDS011;70000;51.176;-115.568;2023-05-10T15:08:28;5.40;;;2.40;;
69596;SDS011;70000;51.176;-115.568;2023-05-10T15:10:57;5.00;;;2.10;;
69596;SDS011;70000;51.176;-115.568;2023-05-10T15:13:26;5.10;;;2.40;;
69596;SDS011;70000;51.176;-115.568;2023-05-10T15:15:54;5.40;;;2.40;;